Medford, OR (97501)

7:57 PM PST on January 18, 2017 (GMT -0800)
Southwest Medford (CW2551) | | Change Station
Active Advisory: Hazardous Seas Warning

Elev 1472 ft 42.31 °N, 122.90 °W | Updated 24 seconds ago

Rain
Rain
41.8 °F
Feels Like 42 °F
N
2.3
Wind Variable Wind from WSW
Gusts 2.3 mph

Today
High -- | Low -- °F
--% Chance of Precip.
Yesterday
High -- | Low -- °F
Precip. -- in
Pressure 29.55 in
Visibility 10.0 miles
Clouds Scattered Clouds 4800 ft
Mostly Cloudy 7000 ft
Windchill 42 °F
Dew Point 38 °F
Humidity 87%
Rainfall 0.54 in
Snow Depth Not available.
7:36 AM 5:08 PM
Waning Gibbous, 57% visible
METAR KMFR 190353Z 23008KT 10SM -RA SCT048 BKN070 07/04 A2954 RMK AO2 SLP005 P0001 T00670039
Pressure 29.55 in
Visibility 10.0 miles
Clouds Scattered Clouds 4800 ft
Mostly Cloudy 7000 ft
Windchill 42 °F
Dew Point 38 °F
Humidity 87%
Rainfall 0.54 in
Snow Depth Not available.
7:36 AM 5:08 PM
Waning Gibbous, 57% visible
METAR KMFR 190353Z 23008KT 10SM -RA SCT048 BKN070 07/04 A2954 RMK AO2 SLP005 P0001 T00670039

Get Your Daily Forecast Email!

Thanks for signing up!

Be on the lookout for a verification email in your inbox.

You'll start receiving the daily forecast at 8 AM.

×

10-Day Weather Forecast

Almanac

Astronomy

Jan. 18, 2017 Rise Set
Actual Time
Civil Twilight
Nautical Twilight
Astronomical Twilight
Moon
Length of Visible Light
Length of Day
Tomorrow will be .
, % of the Moon is Illuminated

Today's Extremes

State Highs State Lows

Community

WunderPhotos

Upload Photos

1,962,540 photos uploaded!

WunderBlog® & News

Nearby

Air Quality

  Air Quality AQ Index Pollutant
Not available.

Snow Depth

Station Depth Elevation

Earthquake Activity

City Distance Mag. Time & Date
Minimum magnitude displayed is 2.5.

Coastal Water Temperatures

Place Temperature

Stations

Nearby Weather Stations

Station Location Temp. Windchill Dew Point Humidity Wind Precip. Elev Updated Type
                   

Watches & Warnings

Hazardous Seas Warning
Issued: 6:11 PM PST Jan. 18, 2017 – National Weather Service

... Hazardous seas warning in effect until 3 am Thursday...
... Gale Warning has expired...

* waves... 15 to 20 feet at 10 to 13 seconds... subsiding overnight.
Seas will build to 25 feet or higher around 18 seconds on
Friday.

Precautionary/preparedness actions...

A hazardous seas warning means hazardous sea conditions are
imminent or occurring. Recreational boaters should remain in
port... or take shelter until waves subside. Commercial vessels
should prepare for rough seas and consider remaining in port or
taking shelter in port until hazardous seas subside.